Time;durP1;ratioP1;P1;durP2;ratioP2;P2;SDS_P1;SDS_P2;PMS_P1;PMS_P2;Temp;Humidity;BMP_temperature;BMP_pressure;BME280_temperature;BME280_humidity;BME280_pressure;Samples;Min_cycle;Max_cycle;Signal;HPM_P1;HPM_P2
2022/04/08 00:00:28;;;;;;;;;0.00;0.00;;;;;10.48;56.86;100264.50;5030194;28;45460;-71
2022/04/08 00:02:54;;;;;;;;;1.00;0.50;;;;;10.44;57.35;100263.81;5029071;28;45461;-71
2022/04/08 00:05:19;;;;;;;;;0.00;0.00;;;;;10.42;57.05;100271.75;5029504;28;46094;-71
2022/04/08 00:07:44;;;;;;;;;0.00;0.00;;;;;10.43;56.95;100268.19;5030461;28;45667;-71
2022/04/08 00:10:10;;;;;;;;;4.25;2.00;;;;;10.45;57.16;100258.47;5032097;28;45684;-71
2022/04/08 00:12:36;;;;;;;;;2.00;0.00;;;;;10.49;57.15;100263.56;5030181;28;45396;-71
2022/04/08 00:15:03;;;;;;;;;2.00;0.00;;;;;10.51;57.03;100259.09;5029217;28;46134;-71
2022/04/08 00:17:29;;;;;;;;;0.50;0.25;;;;;10.53;57.33;100249.34;5028648;28;45394;-71
2022/04/08 00:19:54;;;;;;;;;1.00;0.00;;;;;10.60;57.51;100270.00;5029469;28;45812;-72
2022/04/08 00:22:21;;;;;;;;;0.00;0.00;;;;;10.66;57.55;100267.06;5033954;28;45342;-71
2022/04/08 00:24:46;;;;;;;;;0.00;0.00;;;;;10.73;57.36;100258.84;5028080;28;47163;-71
2022/04/08 00:27:11;;;;;;;;;1.00;0.00;;;;;10.79;57.45;100245.38;5032875;28;45512;-71
2022/04/08 00:29:36;;;;;;;;;0.00;0.00;;;;;10.84;57.26;100246.00;5029847;28;47612;-71
2022/04/08 00:32:02;;;;;;;;;1.25;0.00;;;;;10.87;57.23;100251.13;5027839;28;45411;-71
2022/04/08 00:34:28;;;;;;;;;0.75;0.00;;;;;10.90;57.13;100245.69;5019472;28;46023;-71
2022/04/08 00:36:57;;;;;;;;;0.00;0.00;;;;;10.95;57.05;100247.13;5030956;28;46255;-71
2022/04/08 00:39:23;;;;;;;;;1.50;0.00;;;;;10.98;56.80;100252.25;5033617;28;45308;-71
2022/04/08 00:41:49;;;;;;;;;2.25;0.00;;;;;11.02;56.93;100246.84;5029212;28;45504;-71
2022/04/08 00:44:14;;;;;;;;;0.50;0.00;;;;;11.05;57.01;100250.13;5029262;28;45272;-71
2022/04/08 00:46:40;;;;;;;;;1.00;0.00;;;;;11.07;57.28;100245.66;5017457;28;47930;-71
2022/04/08 00:49:06;;;;;;;;;1.75;0.00;;;;;11.10;57.07;100244.63;5026243;28;45598;-71
2022/04/08 00:51:33;;;;;;;;;0.00;0.00;;;;;11.11;57.13;100228.78;5028405;28;45317;-71
2022/04/08 00:53:58;;;;;;;;;2.00;1.00;;;;;11.13;57.28;100229.56;5033187;28;47003;-71
2022/04/08 00:56:27;;;;;;;;;0.50;0.00;;;;;11.15;57.19;100230.31;5032172;28;45333;-71
2022/04/08 00:58:54;;;;;;;;;2.00;0.25;;;;;11.18;56.99;100229.31;5032817;28;45432;-72
2022/04/08 01:01:20;;;;;;;;;0.00;0.00;;;;;11.21;57.55;100226.50;5036315;28;45287;-71
2022/04/08 01:03:46;;;;;;;;;2.00;0.00;;;;;11.20;56.82;100225.66;5033318;28;45429;-71
2022/04/08 01:06:11;;;;;;;;;0.00;0.00;;;;;11.21;57.04;100223.88;5032306;28;45298;-71
2022/04/08 01:08:38;;;;;;;;;1.00;0.00;;;;;11.21;56.81;100231.75;5032268;28;45433;-71
2022/04/08 01:11:04;;;;;;;;;1.00;1.00;;;;;11.21;56.83;100214.19;5032611;28;45393;-71
2022/04/08 01:13:29;;;;;;;;;1.00;1.00;;;;;11.20;56.76;100217.78;5034947;28;45464;-71
2022/04/08 01:15:54;;;;;;;;;3.00;0.00;;;;;11.20;56.64;100223.03;5033737;28;45433;-71
2022/04/08 01:18:20;;;;;;;;;1.75;0.25;;;;;11.20;56.74;100219.56;5032629;28;48106;-71
2022/04/08 01:20:45;;;;;;;;;0.00;0.00;;;;;11.17;56.84;100215.31;5028398;28;45444;-71
2022/04/08 01:23:14;;;;;;;;;0.00;0.00;;;;;11.17;57.07;100223.22;5035310;28;46157;-71
2022/04/08 01:25:39;;;;;;;;;1.50;0.00;;;;;11.19;57.11;100209.97;5033321;28;45687;-71
2022/04/08 01:28:05;;;;;;;;;0.00;0.00;;;;;11.19;57.15;100213.44;5034902;28;45862;-71
2022/04/08 01:30:30;;;;;;;;;0.00;0.00;;;;;11.14;57.01;100202.31;5032737;28;45472;-71
2022/04/08 01:32:55;;;;;;;;;0.00;0.00;;;;;11.12;56.85;100206.84;5031645;28;46149;-71
2022/04/08 01:35:21;;;;;;;;;0.00;0.00;;;;;11.09;57.14;100204.34;5031298;28;45333;-71
2022/04/08 01:37:46;;;;;;;;;1.25;0.50;;;;;11.10;57.46;100207.81;5030646;28;45402;-71
2022/04/08 01:40:12;;;;;;;;;1.00;0.25;;;;;11.11;57.39;100205.09;5035925;28;45500;-71
2022/04/08 01:42:37;;;;;;;;;1.00;0.75;;;;;11.09;57.36;100192.97;5032203;28;46258;-71
2022/04/08 01:45:03;;;;;;;;;1.50;0.50;;;;;11.07;57.70;100187.81;5031452;28;45444;-71
2022/04/08 01:47:28;;;;;;;;;0.00;0.00;;;;;11.04;57.65;100193.22;5032091;28;45489;-71
2022/04/08 01:49:53;;;;;;;;;0.33;0.33;;;;;11.05;57.56;100196.69;5030744;28;56446;-71
2022/04/08 01:52:19;;;;;;;;;0.00;0.00;;;;;11.04;57.65;100198.50;5035885;28;46147;-71
2022/04/08 01:54:44;;;;;;;;;0.75;0.75;;;;;11.04;57.46;100206.38;5032391;28;45450;-71
2022/04/08 01:57:09;;;;;;;;;0.75;0.75;;;;;11.05;58.11;100200.19;5030984;28;45425;-71
2022/04/08 01:59:35;;;;;;;;;0.00;0.00;;;;;11.05;57.75;100196.69;5032455;28;45744;-71
2022/04/08 02:02:00;;;;;;;;;1.00;0.75;;;;;11.05;57.69;100194.06;5021386;28;46266;-71
2022/04/08 02:04:26;;;;;;;;;1.00;0.00;;;;;11.04;57.94;100187.97;5034925;28;45340;-71
2022/04/08 02:06:52;;;;;;;;;0.00;0.00;;;;;11.06;57.91;100198.41;5031392;28;45495;-71
2022/04/08 02:09:18;;;;;;;;;0.00;0.00;;;;;11.05;57.83;100184.41;5031188;28;45525;-71
2022/04/08 02:11:44;;;;;;;;;0.00;0.00;;;;;11.05;57.81;100183.56;5030681;28;46170;-71
2022/04/08 02:14:09;;;;;;;;;0.00;0.00;;;;;11.05;58.06;100188.81;5030905;28;45812;-71
2022/04/08 02:16:34;;;;;;;;;0.75;0.00;;;;;11.03;58.21;100178.38;5033783;28;45433;-71
2022/04/08 02:19:00;;;;;;;;;1.00;0.00;;;;;11.03;58.21;100183.66;5033890;28;45421;-71
2022/04/08 02:21:25;;;;;;;;;2.75;0.00;;;;;11.02;58.14;100181.97;5031480;28;46106;-71
2022/04/08 02:23:52;;;;;;;;;1.00;1.00;;;;;11.03;58.50;100182.81;5031020;28;45536;-71
2022/04/08 02:26:17;;;;;;;;;1.25;0.00;;;;;11.02;58.43;100179.31;5031994;28;47807;-71
2022/04/08 02:28:44;;;;;;;;;0.75;0.00;;;;;11.03;58.54;100173.13;5019993;28;45377;-71
2022/04/08 02:31:10;;;;;;;;;2.00;0.25;;;;;11.04;58.87;100174.81;5034944;28;45327;-71
2022/04/08 02:33:35;;;;;;;;;1.50;1.00;;;;;11.03;58.52;100167.88;5031472;28;45356;-71
2022/04/08 02:36:01;;;;;;;;;0.00;0.00;;;;;11.04;58.61;100158.19;5030049;28;45431;-71
2022/04/08 02:38:26;;;;;;;;;0.50;0.00;;;;;11.05;58.43;100168.63;5030820;28;45845;-71
2022/04/08 02:40:52;;;;;;;;;3.00;0.25;;;;;11.05;58.73;100167.78;5026019;28;45882;-71
2022/04/08 02:43:17;;;;;;;;;2.00;1.00;;;;;11.05;58.96;100165.16;5035717;28;45432;-71
2022/04/08 02:45:42;;;;;;;;;0.00;0.00;;;;;11.03;58.76;100159.97;5031482;28;45381;-71
2022/04/08 02:48:08;;;;;;;;;2.50;0.75;;;;;11.04;58.71;100155.56;5030819;28;45529;-71
2022/04/08 02:50:33;;;;;;;;;2.00;0.50;;;;;11.04;58.94;100147.69;5027942;28;45387;-71
2022/04/08 02:52:59;;;;;;;;;2.00;0.00;;;;;11.04;59.19;100153.78;5020524;28;45351;-71
2022/04/08 02:55:24;;;;;;;;;0.75;0.00;;;;;11.04;59.49;100150.31;5034283;28;45391;-71
2022/04/08 02:57:50;;;;;;;;;1.75;0.50;;;;;11.05;59.32;100154.63;5031873;28;45351;-71
2022/04/08 03:00:18;;;;;;;;;2.00;2.00;;;;;11.06;59.08;100151.91;5030172;28;47162;-71
2022/04/08 03:02:45;;;;;;;;;1.00;1.00;;;;;11.06;59.37;100148.44;5030365;28;45471;-71
2022/04/08 03:05:11;;;;;;;;;1.50;1.00;;;;;11.08;59.27;100142.19;5030445;28;45465;-71
2022/04/08 03:07:37;;;;;;;;;0.00;0.00;;;;;11.07;59.42;100143.13;5022334;28;45406;-71
2022/04/08 03:10:08;;;;;;;;;0.75;0.00;;;;;11.06;59.48;100136.13;5026050;28;46243;-71
2022/04/08 03:12:34;;;;;;;;;1.00;1.00;;;;;11.06;59.46;100138.75;5029317;28;45316;-71
2022/04/08 03:15:00;;;;;;;;;2.00;0.00;;;;;11.07;59.09;100134.38;5028669;28;45440;-71
2022/04/08 03:17:26;;;;;;;;;2.00;0.00;;;;;11.05;59.46;100130.97;5030274;28;45395;-71
2022/04/08 03:19:51;;;;;;;;;2.00;0.00;;;;;11.05;59.62;100136.22;5031076;28;45539;-71
2022/04/08 03:22:20;;;;;;;;;0.00;0.00;;;;;11.04;59.66;100132.75;5024741;28;45349;-71
2022/04/08 03:24:48;;;;;;;;;0.50;0.00;;;;;11.05;59.69;100126.56;5031124;28;45263;-71
2022/04/08 03:27:15;;;;;;;;;0.50;0.50;;;;;11.04;60.24;100124.88;5034686;28;45547;-71
2022/04/08 03:29:40;;;;;;;;;0.00;0.00;;;;;11.00;60.43;100125.97;5023291;28;46111;-71
2022/04/08 03:32:06;;;;;;;;;3.00;1.00;;;;;10.98;60.64;100119.94;5021149;28;45497;-71
2022/04/08 03:34:32;;;;;;;;;1.00;1.00;;;;;10.93;61.40;100112.31;5034601;28;45820;-71
2022/04/08 03:36:58;;;;;;;;;0.00;0.00;;;;;10.92;61.77;100115.88;5015056;28;45573;-71
2022/04/08 03:39:23;;;;;;;;;2.00;0.75;;;;;10.91;61.55;100119.44;5030222;28;45496;-71
2022/04/08 03:41:49;;;;;;;;;1.00;0.00;;;;;10.91;62.33;100119.44;5030206;28;45465;-71
2022/04/08 03:44:14;;;;;;;;;0.50;0.50;;;;;10.89;62.56;100113.41;5029920;28;45512;-71
2022/04/08 03:46:41;;;;;;;;;2.50;0.75;;;;;10.90;63.21;100112.47;5031418;28;45424;-71
2022/04/08 03:49:14;;;;;;;;;0.00;0.00;;;;;10.86;63.63;100113.59;5033026;28;45325;-71
2022/04/08 03:51:39;;;;;;;;;0.50;0.00;;;;;10.83;64.40;100105.00;5030696;28;45307;-71
2022/04/08 03:54:05;;;;;;;;;0.25;0.00;;;;;10.77;64.90;100098.28;5030960;28;45578;-71
2022/04/08 03:56:30;;;;;;;;;1.75;0.75;;;;;10.76;65.18;100093.13;5029379;28;45441;-71
2022/04/08 03:58:55;;;;;;;;;3.00;1.50;;;;;10.73;65.48;100077.50;5029127;28;55347;-71
2022/04/08 04:01:20;;;;;;;;;2.00;0.00;;;;;10.68;65.55;100075.97;5033821;28;51374;-71
2022/04/08 04:03:46;;;;;;;;;2.75;0.00;;;;;10.62;65.76;100065.81;5030712;28;45689;-71
2022/04/08 04:06:11;;;;;;;;;0.25;0.00;;;;;10.54;66.40;100056.63;5028299;28;45636;-71
2022/04/08 04:08:37;;;;;;;;;2.50;1.00;;;;;10.50;67.23;100058.59;5028991;28;45516;-71
2022/04/08 04:11:02;;;;;;;;;3.50;0.75;;;;;10.49;67.77;100051.63;5029524;28;51247;-71
2022/04/08 04:13:27;;;;;;;;;0.50;0.00;;;;;10.48;68.25;100055.19;5032795;28;45606;-71
2022/04/08 04:15:53;;;;;;;;;1.50;1.00;;;;;10.46;68.60;100043.91;5031065;28;45452;-71
2022/04/08 04:18:18;;;;;;;;;0.00;0.00;;;;;10.46;68.83;100043.91;5029818;28;45862;-71
2022/04/08 04:20:43;;;;;;;;;0.75;0.75;;;;;10.47;69.54;100029.84;5031801;28;52587;-71
2022/04/08 04:23:08;;;;;;;;;1.50;1.25;;;;;10.48;69.75;100023.66;5033045;28;45532;-71
2022/04/08 04:25:34;;;;;;;;;4.00;1.00;;;;;10.48;69.63;100020.19;5035389;28;45314;-71
2022/04/08 04:27:59;;;;;;;;;3.50;1.00;;;;;10.47;70.20;100014.06;5034948;28;47529;-71
2022/04/08 04:30:27;;;;;;;;;1.75;0.50;;;;;10.46;70.16;100007.13;5033642;28;45238;-70
2022/04/08 04:32:53;;;;;;;;;1.00;0.25;;;;;10.45;69.95;99997.56;5033115;28;45479;-70
2022/04/08 04:35:18;;;;;;;;;4.00;0.75;;;;;10.44;70.70;100001.97;5033772;28;45539;-71
2022/04/08 04:37:44;;;;;;;;;1.00;0.75;;;;;10.45;70.66;99994.94;5026632;28;45479;-70
2022/04/08 04:40:10;;;;;;;;;0.75;0.25;;;;;10.47;71.33;99979.09;5036028;28;48237;-70
2022/04/08 04:42:36;;;;;;;;;1.00;1.00;;;;;10.46;70.46;99978.25;5032599;28;45508;-71
2022/04/08 04:45:24;;;;;;;;;1.00;1.00;;;;;10.46;70.81;99973.00;5022596;28;45382;-70
2022/04/08 04:47:50;;;;;;;;;0.75;0.75;;;;;10.37;71.10;99955.94;5035646;28;47071;-71
2022/04/08 04:50:16;;;;;;;;;1.00;1.00;;;;;10.47;71.73;99969.41;5025197;28;45536;-71
2022/04/08 04:52:42;;;;;;;;;1.75;1.00;;;;;10.49;71.57;99966.69;5034550;28;45447;-71
2022/04/08 04:55:07;;;;;;;;;2.00;1.00;;;;;10.49;71.67;99962.28;5033373;28;49606;-70
2022/04/08 04:57:34;;;;;;;;;0.00;0.00;;;;;10.49;71.70;99957.03;5025431;28;45370;-70
2022/04/08 04:59:59;;;;;;;;;2.00;1.00;;;;;10.50;72.29;99942.16;5030557;28;45410;-70
2022/04/08 05:02:24;;;;;;;;;1.00;0.75;;;;;10.49;71.63;99933.41;5033612;28;45566;-70
2022/04/08 05:04:50;;;;;;;;;2.00;1.25;;;;;10.47;71.24;99937.91;5034013;28;45559;-71
2022/04/08 05:07:15;;;;;;;;;0.50;0.00;;;;;10.39;71.72;99917.31;5024128;28;46222;-71
2022/04/08 05:09:41;;;;;;;;;3.00;1.00;;;;;10.40;71.94;99919.00;5030434;28;48618;-70
2022/04/08 05:12:08;;;;;;;;;4.00;1.75;;;;;10.38;72.55;99912.13;5021803;28;45425;-70
2022/04/08 05:14:34;;;;;;;;;1.75;1.25;;;;;10.37;72.69;99905.19;5028358;28;45504;-71
2022/04/08 05:16:59;;;;;;;;;2.00;1.00;;;;;10.36;72.75;99890.38;5021762;28;47515;-70
2022/04/08 05:19:25;;;;;;;;;1.00;1.00;;;;;10.33;72.58;99883.50;5033878;28;45378;-70
2022/04/08 05:21:52;;;;;;;;;1.00;1.00;;;;;10.30;72.39;99877.59;5031467;28;45775;-70
2022/04/08 05:24:18;;;;;;;;;1.25;1.25;;;;;10.27;72.67;99883.00;5024253;28;45607;-71
2022/04/08 05:26:44;;;;;;;;;2.00;0.75;;;;;10.24;73.22;99868.28;5026583;28;46103;-71
2022/04/08 05:29:09;;;;;;;;;1.50;0.75;;;;;10.22;73.09;99874.50;5026901;28;45473;-71
2022/04/08 05:31:35;;;;;;;;;4.00;2.50;;;;;10.24;73.81;99875.31;5019799;28;45436;-71
2022/04/08 05:34:00;;;;;;;;;3.25;2.00;;;;;10.24;73.91;99873.53;5029346;28;45401;-70
2022/04/08 05:36:25;;;;;;;;;1.00;0.75;;;;;10.26;73.83;99860.28;5025515;28;53035;-71
2022/04/08 05:38:50;;;;;;;;;2.75;2.00;;;;;10.27;74.15;99860.19;5029960;28;45435;-71
2022/04/08 05:41:16;;;;;;;;;8.75;2.50;;;;;10.27;73.86;99856.72;5028853;28;45591;-71
2022/04/08 05:43:44;;;;;;;;;3.50;2.00;;;;;10.24;74.11;99849.03;5030247;28;45424;-71
2022/04/08 05:46:10;;;;;;;;;4.00;2.00;;;;;10.22;74.02;99842.97;5019806;28;46329;-71
2022/04/08 05:48:35;;;;;;;;;6.00;4.00;;;;;10.17;74.57;99836.19;5018579;28;45458;-71
2022/04/08 05:51:00;;;;;;;;;2.00;2.00;;;;;10.20;74.84;99841.28;5034386;28;45605;-71
2022/04/08 05:53:26;;;;;;;;;3.00;2.50;;;;;10.17;74.76;99825.69;5030496;28;45425;-69
2022/04/08 05:55:58;;;;;;;;;3.00;2.00;;;;;10.13;74.99;99820.72;5023176;28;48150;-70
2022/04/08 05:58:24;;;;;;;;;6.50;2.75;;;;;10.07;75.43;99800.88;5033659;28;45994;-70
2022/04/08 06:00:50;;;;;;;;;2.50;1.00;;;;;10.08;75.22;99802.59;5029504;28;45628;-71
2022/04/08 06:03:15;;;;;;;;;6.50;3.00;;;;;10.05;75.48;99794.88;5030052;28;45605;-70
2022/04/08 06:05:40;;;;;;;;;4.75;2.00;;;;;10.06;74.87;99779.97;5027080;28;45421;-71
2022/04/08 06:08:06;;;;;;;;;1.25;1.25;;;;;10.03;75.10;99777.53;5031165;28;45400;-70
2022/04/08 06:10:32;;;;;;;;;6.00;2.00;;;;;10.11;75.29;99789.28;5035024;28;45565;-70
2022/04/08 06:12:57;;;;;;;;;5.00;2.00;;;;;10.03;75.61;99774.91;5032053;28;45466;-70
2022/04/08 06:15:24;;;;;;;;;3.00;1.50;;;;;10.06;75.60;99767.69;5019696;28;46117;-70
2022/04/08 06:17:50;;;;;;;;;2.00;2.00;;;;;10.11;75.67;99764.81;5033873;28;45582;-70
2022/04/08 06:20:17;;;;;;;;;5.50;2.00;;;;;10.06;75.64;99745.84;5029426;28;45414;-71
2022/04/08 06:22:44;;;;;;;;;1.00;1.00;;;;;10.06;76.94;99738.81;5023150;28;45453;-71
2022/04/08 06:25:13;;;;;;;;;2.50;2.00;;;;;10.10;76.39;99744.75;5031233;28;46618;-71
2022/04/08 06:27:39;;;;;;;;;2.00;1.50;;;;;10.11;76.11;99739.41;5030205;28;45850;-71
2022/04/08 06:30:09;;;;;;;;;4.00;3.00;;;;;10.05;75.31;99726.63;5027884;28;45509;-71
2022/04/08 06:32:35;;;;;;;;;1.00;1.00;;;;;10.00;75.44;99720.81;5026994;28;45433;-70
2022/04/08 06:35:00;;;;;;;;;1.00;1.00;;;;;9.94;75.22;99706.25;5024683;28;46313;-70
2022/04/08 06:37:28;;;;;;;;;1.00;1.00;;;;;9.88;75.29;99708.38;5030551;28;45466;-70
2022/04/08 06:39:55;;;;;;;;;2.00;1.50;;;;;9.87;77.80;99707.53;5032144;28;45452;-71
2022/04/08 06:42:21;;;;;;;;;1.75;0.75;;;;;9.80;76.55;99698.31;5029453;28;45698;-69
2022/04/08 06:44:47;;;;;;;;;2.25;2.00;;;;;9.76;76.12;99696.81;5028842;28;46421;-70
2022/04/08 06:47:12;;;;;;;;;5.50;1.75;;;;;9.85;75.80;99709.38;5020894;28;45607;-70
2022/04/08 06:49:43;;;;;;;;;2.25;1.50;;;;;9.83;76.33;99719.13;5026250;28;45500;-70
2022/04/08 06:52:09;;;;;;;;;3.50;1.75;;;;;9.84;76.29;99712.94;5019674;28;45587;-70
2022/04/08 06:54:34;;;;;;;;;1.25;1.25;;;;;9.85;76.27;99701.50;5023888;28;45469;-70
2022/04/08 06:56:59;;;;;;;;;5.25;1.00;;;;;9.87;76.56;99704.91;5029326;28;45646;-69
2022/04/08 06:59:25;;;;;;;;;3.25;2.00;;;;;9.88;76.66;99706.59;5026713;28;45702;-70
2022/04/08 07:01:51;;;;;;;;;2.00;2.00;;;;;9.86;76.31;99704.97;5022781;28;45568;-69
2022/04/08 07:04:16;;;;;;;;;4.00;1.00;;;;;9.84;76.04;99693.75;5030386;28;46111;-71
2022/04/08 07:06:41;;;;;;;;;2.25;1.25;;;;;9.82;76.32;99701.69;5028077;28;45478;-72
2022/04/08 07:09:07;;;;;;;;;0.25;0.25;;;;;9.82;76.29;99699.06;5032108;28;51607;-69
2022/04/08 07:11:32;;;;;;;;;2.00;2.00;;;;;9.86;76.76;99705.81;5031982;28;49897;-71
2022/04/08 07:13:57;;;;;;;;;2.00;1.50;;;;;9.86;76.94;99708.44;5032813;28;45485;-72
2022/04/08 07:16:23;;;;;;;;;3.25;2.00;;;;;9.89;77.24;99712.69;5032720;28;45476;-71
2022/04/08 07:18:49;;;;;;;;;2.00;2.00;;;;;9.93;77.49;99716.84;5031011;28;45279;-72
2022/04/08 07:21:14;;;;;;;;;2.25;1.00;;;;;9.93;77.17;99709.81;5027961;28;45501;-70
2022/04/08 07:23:39;;;;;;;;;5.75;2.75;;;;;9.94;76.68;99701.00;5030528;28;45759;-69
2022/04/08 07:26:05;;;;;;;;;9.25;2.25;;;;;9.96;76.55;99693.03;5028993;28;45489;-69
2022/04/08 07:28:31;;;;;;;;;3.75;1.00;;;;;9.92;76.42;99681.88;5024250;28;45745;-70
2022/04/08 07:30:57;;;;;;;;;1.25;1.25;;;;;9.88;76.83;99672.50;5030754;28;45884;-71
2022/04/08 07:33:22;;;;;;;;;1.75;0.75;;;;;9.80;76.30;99669.44;5031298;28;45726;-71
2022/04/08 07:35:48;;;;;;;;;2.00;2.00;;;;;9.70;76.17;99655.16;5031131;28;45821;-71
2022/04/08 07:38:14;;;;;;;;;3.00;2.00;;;;;9.64;76.69;99658.13;5029978;28;45894;-70
2022/04/08 07:40:39;;;;;;;;;4.50;2.00;;;;;9.60;77.14;99649.56;5030461;28;45808;-70
2022/04/08 07:43:05;;;;;;;;;1.25;1.25;;;;;9.61;77.54;99635.56;5030715;28;45764;-70
2022/04/08 07:45:30;;;;;;;;;3.25;2.25;;;;;9.66;77.79;99630.88;5025075;28;45525;-70
2022/04/08 07:47:58;;;;;;;;;1.00;1.00;;;;;9.72;78.07;99610.47;5030861;28;45465;-70
2022/04/08 07:50:25;;;;;;;;;2.50;2.00;;;;;9.76;78.40;99598.84;5027348;28;45717;-71
2022/04/08 07:52:50;;;;;;;;;2.25;2.00;;;;;9.75;79.87;99586.69;5021126;28;45484;-70
2022/04/08 07:55:20;;;;;;;;;4.00;2.50;;;;;9.74;78.85;99577.13;5029739;28;45500;-71
2022/04/08 07:57:48;;;;;;;;;2.50;1.75;;;;;9.72;77.88;99574.59;5039770;28;45547;-70
2022/04/08 08:00:16;;;;;;;;;1.50;1.50;;;;;9.66;77.06;99567.94;5025768;28;45836;-71
2022/04/08 08:02:43;;;;;;;;;0.00;0.00;;;;;9.54;77.40;99579.09;5029407;28;47209;-71
2022/04/08 08:05:09;;;;;;;;;0.50;0.50;;;;;9.34;77.91;99588.13;5027968;28;45491;-71
2022/04/08 08:07:54;;;;;;;;;1.00;1.00;;;;;9.32;78.42;99599.63;5030900;28;45471;-71
2022/04/08 08:10:28;;;;;;;;;1.00;1.00;;;;;9.23;78.35;99587.84;5021660;28;45496;-71
2022/04/08 08:12:54;;;;;;;;;1.00;1.00;;;;;9.22;78.58;99582.69;5024203;28;46059;-71
2022/04/08 08:15:22;;;;;;;;;0.00;0.00;;;;;9.18;79.22;99574.16;5025270;28;45600;-72
2022/04/08 08:17:48;;;;;;;;;2.75;2.75;;;;;9.18;79.73;99563.66;5027267;28;45565;-72
2022/04/08 08:20:16;;;;;;;;;2.25;2.25;;;;;9.20;79.57;99537.41;5029005;28;45527;-72
2022/04/08 08:22:42;;;;;;;;;1.50;0.75;;;;;9.20;79.71;99527.75;5036079;28;45456;-72
2022/04/08 08:25:09;;;;;;;;;1.00;1.00;;;;;9.20;82.61;99516.44;5022981;28;46052;-71
2022/04/08 08:27:51;;;;;;;;;3.00;1.25;;;;;9.19;81.71;99517.34;5019026;28;45480;-72
2022/04/08 08:30:17;;;;;;;;;3.00;1.00;;;;;9.08;82.08;99503.09;5037028;28;45781;-72
2022/04/08 08:32:47;;;;;;;;;1.25;1.25;;;;;9.02;82.94;99502.56;5029333;28;45839;-72
2022/04/08 08:35:14;;;;;;;;;2.50;1.25;;;;;8.95;85.22;99504.69;5026120;28;45637;-72
2022/04/08 08:37:40;;;;;;;;;5.25;2.00;;;;;8.91;84.71;99492.69;5030302;28;45305;-72
2022/04/08 08:40:08;;;;;;;;;4.00;2.00;;;;;8.91;84.66;99489.22;5028041;28;46064;-70
2022/04/08 08:42:36;;;;;;;;;6.00;1.50;;;;;8.87;83.49;99491.16;5027128;28;45557;-71
2022/04/08 08:45:03;;;;;;;;;4.00;1.00;;;;;8.79;83.79;99490.75;5021419;28;45485;-71
2022/04/08 08:47:30;;;;;;;;;2.00;1.75;;;;;8.80;84.19;99487.19;5032666;28;45495;-71
2022/04/08 08:49:57;;;;;;;;;2.00;2.00;;;;;8.78;82.66;99483.84;5030994;28;45444;-71
2022/04/08 08:52:23;;;;;;;;;2.00;2.00;;;;;8.71;83.27;99480.69;5020740;28;45807;-70
2022/04/08 08:54:49;;;;;;;;;5.00;5.00;;;;;8.72;83.83;99473.66;5043599;28;45805;-70
2022/04/08 08:57:20;;;;;;;;;4.75;1.75;;;;;8.73;83.45;99465.75;5035252;28;45491;-70
2022/04/08 08:59:46;;;;;;;;;2.00;2.00;;;;;8.68;83.08;99451.22;5029311;28;45434;-71
2022/04/08 09:02:17;;;;;;;;;2.50;1.25;;;;;8.70;83.37;99467.69;5028799;28;45759;-72
2022/04/08 09:04:43;;;;;;;;;4.25;2.00;;;;;8.70;82.26;99441.50;5033661;28;45474;-71
2022/04/08 09:07:21;;;;;;;;;5.50;2.00;;;;;8.73;82.11;99446.56;5030968;28;45405;-70
2022/04/08 09:09:54;;;;;;;;;2.25;1.00;;;;;8.74;81.70;99445.63;5019778;28;45527;-71
2022/04/08 09:12:21;;;;;;;;;0.75;0.75;;;;;8.67;83.08;99439.91;5024208;28;46750;-71
2022/04/08 09:14:55;;;;;;;;;2.00;1.00;;;;;8.70;83.80;99417.91;5031891;28;45409;-73
2022/04/08 09:17:22;;;;;;;;;2.00;1.00;;;;;8.71;84.50;99393.41;5029244;28;45431;-71
2022/04/08 09:19:49;;;;;;;;;2.00;2.00;;;;;8.70;83.91;99389.13;5027617;28;45510;-72
2022/04/08 09:22:15;;;;;;;;;0.00;0.00;;;;;8.55;84.81;99370.72;5025821;28;46234;-70
2022/04/08 09:24:40;;;;;;;;;1.50;0.00;;;;;8.41;85.74;99377.69;5031226;28;45857;-69
2022/04/08 09:27:05;;;;;;;;;2.25;1.50;;;;;8.27;86.60;99370.53;5028658;28;45697;-70
2022/04/08 09:29:30;;;;;;;;;6.50;2.00;;;;;8.13;86.28;99388.75;5030163;28;45791;-69
2022/04/08 09:31:59;;;;;;;;;2.00;2.00;;;;;8.01;92.53;99378.03;5025520;28;45949;-69
2022/04/08 09:34:25;;;;;;;;;1.00;1.00;;;;;7.93;88.81;99371.53;5023077;28;45491;-70
2022/04/08 09:36:50;;;;;;;;;5.50;4.00;;;;;7.89;87.76;99365.63;5029925;28;45395;-71
2022/04/08 09:39:16;;;;;;;;;2.25;2.25;;;;;7.85;86.88;99351.88;5026559;28;45316;-70
2022/04/08 09:41:53;;;;;;;;;3.50;3.50;;;;;7.80;88.99;99361.72;5029946;28;46382;-71
2022/04/08 09:44:26;;;;;;;;;5.00;3.00;;;;;7.79;89.55;99361.81;5032069;28;45588;-71
2022/04/08 09:46:52;;;;;;;;;3.00;2.00;;;;;7.73;87.01;99349.91;5040627;28;45347;-71
2022/04/08 09:49:17;;;;;;;;;4.50;2.25;;;;;7.64;86.94;99362.63;5036203;28;45493;-71
2022/04/08 09:51:43;;;;;;;;;1.25;1.25;;;;;7.57;88.60;99386.50;5035745;28;46066;-71
2022/04/08 09:54:14;;;;;;;;;1.50;1.00;;;;;7.54;90.50;99396.25;5032666;28;45489;-70
2022/04/08 09:56:43;;;;;;;;;1.00;1.00;;;;;7.54;89.53;99389.25;5032939;28;45586;-70
2022/04/08 09:59:12;;;;;;;;;2.00;1.00;;;;;7.57;89.25;99380.41;5033300;28;45282;-71
2022/04/08 10:01:39;;;;;;;;;4.00;2.00;;;;;8.06;100.00;99386.50;5033170;28;47212;-71
2022/04/08 10:04:07;;;;;;;;;4.00;3.50;;;;;8.85;100.00;99375.16;5034289;28;45387;-71
2022/04/08 10:06:34;;;;;;;;;5.00;2.25;;;;;9.84;100.00;99347.38;5032157;28;45390;-70
2022/04/08 10:09:00;;;;;;;;;10.25;4.50;;;;;11.92;100.00;99326.53;5031459;28;45400;-71
2022/04/08 10:11:45;;;;;;;;;2.50;1.50;;;;;10.64;100.00;99338.75;5030633;28;46586;-71
2022/04/08 10:14:27;;;;;;;;;3.75;2.25;;;;;8.78;100.00;99358.09;5034841;28;45432;-71
2022/04/08 10:16:55;;;;;;;;;6.00;3.00;;;;;8.36;100.00;99378.78;5030915;28;45546;-71
2022/04/08 10:19:22;;;;;;;;;3.00;2.00;;;;;8.11;100.00;99384.47;5035461;28;45437;-71
2022/04/08 10:21:53;;;;;;;;;1.25;1.25;;;;;7.96;100.00;99372.22;5032118;28;46911;-71
2022/04/08 10:24:23;;;;;;;;;5.50;2.00;;;;;7.94;100.00;99373.25;5031479;28;45349;-70
2022/04/08 10:26:58;;;;;;;;;2.00;1.50;;;;;7.85;100.00;99377.19;5031025;28;45447;-71
2022/04/08 10:29:24;;;;;;;;;1.00;0.75;;;;;7.85;100.00;99372.78;5031371;28;45426;-71
2022/04/08 10:32:03;;;;;;;;;1.00;1.00;;;;;7.64;100.00;99357.41;5031158;28;45922;-71
2022/04/08 10:34:32;;;;;;;;;2.25;0.25;;;;;7.62;100.00;99340.94;5019619;28;45488;-71
2022/04/08 10:37:01;;;;;;;;;1.00;1.00;;;;;7.65;100.00;99330.31;5033111;28;45423;-71
2022/04/08 10:39:27;;;;;;;;;1.25;1.25;;;;;7.82;100.00;99325.03;5021278;28;45398;-71
2022/04/08 10:41:54;;;;;;;;;3.50;1.75;;;;;8.21;100.00;99342.09;5028298;28;46234;-71
2022/04/08 10:44:41;;;;;;;;;3.00;3.00;;;;;9.44;100.00;99335.84;5030868;28;46473;-71
2022/04/08 10:47:18;;;;;;;;;6.00;3.00;;;;;9.07;100.00;99315.31;5030805;28;45326;-71
2022/04/08 10:50:04;;;;;;;;;5.50;5.50;;;;;8.27;100.00;99311.19;5031945;28;45825;-71
2022/04/08 10:52:39;;;;;;;;;4.25;3.00;;;;;8.11;100.00;99271.94;5019408;28;46025;-71
2022/04/08 10:55:07;;;;;;;;;2.50;2.00;;;;;8.11;100.00;99248.41;5033581;28;45384;-71
2022/04/08 10:57:40;;;;;;;;;8.00;5.00;;;;;8.24;100.00;99238.06;5031366;28;45404;-71
2022/04/08 11:00:17;;;;;;;;;5.25;4.00;;;;;8.40;100.00;99242.47;5030346;28;45496;-71
2022/04/08 11:02:43;;;;;;;;;2.50;2.50;;;;;8.57;100.00;99245.78;5030235;28;45429;-71
2022/04/08 11:05:11;;;;;;;;;3.00;2.00;;;;;8.76;100.00;99237.69;5032664;28;45903;-70
2022/04/08 11:07:45;;;;;;;;;2.25;2.00;;;;;9.04;100.00;99249.16;5034312;28;45500;-70
2022/04/08 11:10:12;;;;;;;;;3.00;3.00;;;;;9.04;100.00;99255.22;5025892;28;45419;-70
2022/04/08 11:12:45;;;;;;;;;4.00;4.00;;;;;8.99;100.00;99243.34;5020017;28;45776;-69
2022/04/08 11:15:15;;;;;;;;;3.00;3.00;;;;;9.01;100.00;99267.66;5024373;28;45429;-70
2022/04/08 11:17:41;;;;;;;;;6.00;4.00;;;;;9.08;100.00;99282.06;5028522;28;45643;-69
2022/04/08 11:20:13;;;;;;;;;5.50;3.00;;;;;8.99;100.00;99278.25;5028394;28;45563;-70
2022/04/08 11:22:43;;;;;;;;;5.50;5.50;;;;;9.14;100.00;99271.25;5020430;28;46104;-69
2022/04/08 11:25:10;;;;;;;;;7.00;5.00;;;;;9.40;100.00;99285.41;5024186;28;45652;-70
2022/04/08 11:27:37;;;;;;;;;5.50;3.75;;;;;9.65;100.00;99275.03;5032504;28;45657;-70
2022/04/08 11:30:08;;;;;;;;;6.25;5.00;;;;;9.79;100.00;99270.72;5028131;28;47867;-69